sensor_id;sensor_type;location;lat;lon;timestamp;pressure;altitude;pressure_sealevel;temperature;humidity
216;BME280;64590;48.81286795;9.14184224;2023-06-10T02:53:04;97951.84;;;15.52;nan
216;BME280;64590;48.81286795;9.14184224;2023-06-10T02:55:36;97917.81;;;15.37;nan
216;BME280;64590;48.81286795;9.14184224;2023-06-10T02:58:11;97908.41;;;15.80;nan
216;BME280;64590;48.81286795;9.14184224;2023-06-10T03:00:39;97911.38;;;15.57;nan
216;BME280;64590;48.81286795;9.14184224;2023-06-10T03:03:09;97901.63;;;15.65;nan
216;BME280;64590;48.81286795;9.14184224;2023-06-10T03:05:46;97909.72;;;15.59;nan
216;BME280;64590;48.81286795;9.14184224;2023-06-10T03:08:17;97901.00;;;15.73;nan
216;BME280;64590;48.81286795;9.14184224;2023-06-10T03:10:45;97918.75;;;15.67;nan
216;BME280;64590;48.81286795;9.14184224;2023-06-10T03:13:19;97915.16;;;15.66;nan
216;BME280;64590;48.81286795;9.14184224;2023-06-10T03:15:47;97920.00;;;15.30;nan
216;BME280;64590;48.81286795;9.14184224;2023-06-10T03:18:19;97912.94;;;15.41;nan
216;BME280;64590;48.81286795;9.14184224;2023-06-10T03:20:48;97917.66;;;15.44;nan
216;BME280;64590;48.81286795;9.14184224;2023-06-10T03:23:17;97930.22;;;15.36;nan
216;BME280;64590;48.81286795;9.14184224;2023-06-10T03:25:46;97928.88;;;15.08;nan
216;BME280;64590;48.81286795;9.14184224;2023-06-10T03:28:20;97930.19;;;15.04;nan
216;BME280;64590;48.81286795;9.14184224;2023-06-10T03:30:48;97935.25;;;15.09;nan
216;BME280;64590;48.81286795;9.14184224;2023-06-10T03:33:17;97941.97;;;15.11;nan
216;BME280;64590;48.81286795;9.14184224;2023-06-10T03:35:46;97940.97;;;15.21;nan
216;BME280;64590;48.81286795;9.14184224;2023-06-10T03:38:14;97941.38;;;15.20;nan
216;BME280;64590;48.81286795;9.14184224;2023-06-10T03:40:44;97937.88;;;15.16;nan
216;BME280;64590;48.81286795;9.14184224;2023-06-10T03:43:12;97946.75;;;14.94;nan
216;BME280;64590;48.81286795;9.14184224;2023-06-10T03:45:44;97946.22;;;14.99;nan
216;BME280;64590;48.81286795;9.14184224;2023-06-10T03:48:14;97948.72;;;15.14;nan
216;BME280;64590;48.81286795;9.14184224;2023-06-10T03:50:47;97956.31;;;14.93;nan
216;BME280;64590;48.81286795;9.14184224;2023-06-10T03:53:16;97949.47;;;14.78;nan
216;BME280;64590;48.81286795;9.14184224;2023-06-10T03:55:45;97954.09;;;14.85;nan
216;BME280;64590;48.81286795;9.14184224;2023-06-10T03:58:16;97959.47;;;15.15;nan
216;BME280;64590;48.81286795;9.14184224;2023-06-10T04:00:47;97951.81;;;14.99;nan
216;BME280;64590;48.81286795;9.14184224;2023-06-10T04:03:15;97959.56;;;14.92;nan
216;BME280;64590;48.81286795;9.14184224;2023-06-10T04:05:49;97958.84;;;15.08;nan
216;BME280;64590;48.81286795;9.14184224;2023-06-10T04:08:18;97956.03;;;15.08;nan
216;BME280;64590;48.81286795;9.14184224;2023-06-10T04:10:47;97959.56;;;14.92;nan
216;BME280;64590;48.81286795;9.14184224;2023-06-10T04:13:16;97951.81;;;14.99;nan
216;BME280;64590;48.81286795;9.14184224;2023-06-10T04:15:55;97957.06;;;14.97;nan
216;BME280;64590;48.81286795;9.14184224;2023-06-10T04:18:24;97960.28;;;14.76;nan
216;BME280;64590;48.81286795;9.14184224;2023-06-10T04:20:56;97956.59;;;15.19;nan
216;BME280;64590;48.81286795;9.14184224;2023-06-10T04:23:24;97951.47;;;15.34;nan
216;BME280;64590;48.81286795;9.14184224;2023-06-10T04:25:53;97960.00;;;15.63;nan
216;BME280;64590;48.81286795;9.14184224;2023-06-10T04:28:22;97955.75;;;15.91;nan
216;BME280;64590;48.81286795;9.14184224;2023-06-10T04:30:51;97966.28;;;15.50;nan
216;BME280;64590;48.81286795;9.14184224;2023-06-10T04:33:22;97965.47;;;15.50;nan
216;BME280;64590;48.81286795;9.14184224;2023-06-10T04:35:50;97959.38;;;15.55;nan
216;BME280;64590;48.81286795;9.14184224;2023-06-10T04:38:21;97968.47;;;15.59;nan
216;BME280;64590;48.81286795;9.14184224;2023-06-10T04:40:50;97965.97;;;15.65;nan
216;BME280;64590;48.81286795;9.14184224;2023-06-10T04:43:20;97962.75;;;15.82;nan
216;BME280;64590;48.81286795;9.14184224;2023-06-10T04:45:49;97965.94;;;16.30;nan
216;BME280;64590;48.81286795;9.14184224;2023-06-10T04:48:18;97965.09;;;16.62;nan
216;BME280;64590;48.81286795;9.14184224;2023-06-10T04:50:49;97959.72;;;16.67;nan
216;BME280;64590;48.81286795;9.14184224;2023-06-10T04:53:18;97953.03;;;16.49;nan
216;BME280;64590;48.81286795;9.14184224;2023-06-10T04:55:46;97963.94;;;16.30;nan
216;BME280;64590;48.81286795;9.14184224;2023-06-10T04:58:15;97965.09;;;16.17;nan
216;BME280;64590;48.81286795;9.14184224;2023-06-10T05:00:43;97968.88;;;16.10;nan
216;BME280;64590;48.81286795;9.14184224;2023-06-10T05:03:12;97967.28;;;16.25;nan
216;BME280;64590;48.81286795;9.14184224;2023-06-10T05:05:40;97966.16;;;16.52;nan
216;BME280;64590;48.81286795;9.14184224;2023-06-10T05:08:11;97964.50;;;16.54;nan
216;BME280;64590;48.81286795;9.14184224;2023-06-10T05:10:39;97970.13;;;16.67;nan
216;BME280;64590;48.81286795;9.14184224;2023-06-10T05:13:08;97958.22;;;16.79;nan
216;BME280;64590;48.81286795;9.14184224;2023-06-10T05:15:36;97966.25;;;17.06;nan
216;BME280;64590;48.81286795;9.14184224;2023-06-10T05:18:05;97967.16;;;17.03;nan
216;BME280;64590;48.81286795;9.14184224;2023-06-10T05:20:34;97966.25;;;17.06;nan
216;BME280;64590;48.81286795;9.14184224;2023-06-10T05:23:02;97970.88;;;17.13;nan
216;BME280;64590;48.81286795;9.14184224;2023-06-10T05:25:34;97967.84;;;17.20;nan
216;BME280;64590;48.81286795;9.14184224;2023-06-10T05:28:03;97967.31;;;17.25;nan
216;BME280;64590;48.81286795;9.14184224;2023-06-10T05:30:35;97977.06;;;17.33;nan
216;BME280;64590;48.81286795;9.14184224;2023-06-10T05:33:04;97979.00;;;17.49;nan
216;BME280;64590;48.81286795;9.14184224;2023-06-10T05:35:32;97981.16;;;17.70;nan
216;BME280;64590;48.81286795;9.14184224;2023-06-10T05:38:00;97980.47;;;17.79;nan
216;BME280;64590;48.81286795;9.14184224;2023-06-10T05:40:29;97982.16;;;17.89;nan
216;BME280;64590;48.81286795;9.14184224;2023-06-10T05:43:00;97982.16;;;18.02;nan
216;BME280;64590;48.81286795;9.14184224;2023-06-10T05:45:28;97980.81;;;18.41;nan
216;BME280;64590;48.81286795;9.14184224;2023-06-10T05:47:57;97982.44;;;18.77;nan
216;BME280;64590;48.81286795;9.14184224;2023-06-10T05:50:25;97976.66;;;19.02;nan
216;BME280;64590;48.81286795;9.14184224;2023-06-10T05:52:53;97984.66;;;18.82;nan
216;BME280;64590;48.81286795;9.14184224;2023-06-10T05:55:23;97984.47;;;18.63;nan
216;BME280;64590;48.81286795;9.14184224;2023-06-10T05:58:01;97980.13;;;18.50;nan
216;BME280;64590;48.81286795;9.14184224;2023-06-10T06:00:29;97986.41;;;19.10;nan
216;BME280;64590;48.81286795;9.14184224;2023-06-10T06:02:58;97967.25;;;18.96;nan
216;BME280;64590;48.81286795;9.14184224;2023-06-10T06:05:26;97988.69;;;19.46;nan
216;BME280;64590;48.81286795;9.14184224;2023-06-10T06:08:00;97991.25;;;19.32;nan
216;BME280;64590;48.81286795;9.14184224;2023-06-10T06:10:28;97990.22;;;19.16;nan
216;BME280;64590;48.81286795;9.14184224;2023-06-10T06:12:57;97993.59;;;19.33;nan
216;BME280;64590;48.81286795;9.14184224;2023-06-10T06:15:28;97990.16;;;19.60;nan
216;BME280;64590;48.81286795;9.14184224;2023-06-10T06:17:56;97996.03;;;19.22;nan
216;BME280;64590;48.81286795;9.14184224;2023-06-10T06:20:25;97993.94;;;19.13;nan
216;BME280;64590;48.81286795;9.14184224;2023-06-10T06:22:53;97998.63;;;19.38;nan
216;BME280;64590;48.81286795;9.14184224;2023-06-10T06:25:21;97987.03;;;19.58;nan
216;BME280;64590;48.81286795;9.14184224;2023-06-10T06:27:50;97994.31;;;19.77;nan
216;BME280;64590;48.81286795;9.14184224;2023-06-10T06:30:18;97996.16;;;19.71;nan
216;BME280;64590;48.81286795;9.14184224;2023-06-10T06:32:49;97992.63;;;19.89;nan
216;BME280;64590;48.81286795;9.14184224;2023-06-10T06:35:18;97992.97;;;19.91;nan
216;BME280;64590;48.81286795;9.14184224;2023-06-10T06:37:46;97997.59;;;20.16;nan
216;BME280;64590;48.81286795;9.14184224;2023-06-10T06:40:20;97990.44;;;19.84;nan
216;BME280;64590;48.81286795;9.14184224;2023-06-10T06:42:48;97995.56;;;20.17;nan
216;BME280;64590;48.81286795;9.14184224;2023-06-10T06:45:23;97999.56;;;20.07;nan
216;BME280;64590;48.81286795;9.14184224;2023-06-10T06:47:54;97999.34;;;19.83;nan
216;BME280;64590;48.81286795;9.14184224;2023-06-10T06:50:22;98003.84;;;20.20;nan
216;BME280;64590;48.81286795;9.14184224;2023-06-10T06:52:50;98000.63;;;20.49;nan
216;BME280;64590;48.81286795;9.14184224;2023-06-10T06:55:19;98002.84;;;20.54;nan
216;BME280;64590;48.81286795;9.14184224;2023-06-10T06:57:47;98002.56;;;20.12;nan
216;BME280;64590;48.81286795;9.14184224;2023-06-10T07:00:17;97994.84;;;19.94;nan
216;BME280;64590;48.81286795;9.14184224;2023-06-10T07:02:45;97997.69;;;20.03;nan
216;BME280;64590;48.81286795;9.14184224;2023-06-10T07:05:16;97996.59;;;20.50;nan
216;BME280;64590;48.81286795;9.14184224;2023-06-10T07:07:45;97995.81;;;20.86;nan
216;BME280;64590;48.81286795;9.14184224;2023-06-10T07:10:13;98006.94;;;20.72;nan
216;BME280;64590;48.81286795;9.14184224;2023-06-10T07:12:41;98003.63;;;20.55;nan
216;BME280;64590;48.81286795;9.14184224;2023-06-10T07:15:10;98001.22;;;20.35;nan
216;BME280;64590;48.81286795;9.14184224;2023-06-10T07:17:39;98006.09;;;20.35;nan
216;BME280;64590;48.81286795;9.14184224;2023-06-10T07:20:08;98002.84;;;20.45;nan
216;BME280;64590;48.81286795;9.14184224;2023-06-10T07:22:39;98010.38;;;21.22;nan
216;BME280;64590;48.81286795;9.14184224;2023-06-10T07:25:08;98004.28;;;20.86;nan
216;BME280;64590;48.81286795;9.14184224;2023-06-10T07:27:36;98008.97;;;20.62;nan
216;BME280;64590;48.81286795;9.14184224;2023-06-10T07:30:06;97998.00;;;20.55;nan
216;BME280;64590;48.81286795;9.14184224;2023-06-10T07:32:35;97989.34;;;21.23;nan
216;BME280;64590;48.81286795;9.14184224;2023-06-10T07:35:06;97999.22;;;21.18;nan
216;BME280;64590;48.81286795;9.14184224;2023-06-10T07:37:35;98003.03;;;20.97;nan
216;BME280;64590;48.81286795;9.14184224;2023-06-10T07:40:07;97998.88;;;21.43;nan
216;BME280;64590;48.81286795;9.14184224;2023-06-10T07:42:35;97996.97;;;21.59;nan
216;BME280;64590;48.81286795;9.14184224;2023-06-10T07:45:05;97998.75;;;21.20;nan
216;BME280;64590;48.81286795;9.14184224;2023-06-10T07:47:34;98001.84;;;21.58;nan
216;BME280;64590;48.81286795;9.14184224;2023-06-10T07:50:03;98000.63;;;21.92;nan
216;BME280;64590;48.81286795;9.14184224;2023-06-10T07:52:31;97982.59;;;21.90;nan
216;BME280;64590;48.81286795;9.14184224;2023-06-10T07:55:00;97999.31;;;22.02;nan
216;BME280;64590;48.81286795;9.14184224;2023-06-10T07:57:31;98006.53;;;21.61;nan
216;BME280;64590;48.81286795;9.14184224;2023-06-10T08:00:02;97997.78;;;21.50;nan
216;BME280;64590;48.81286795;9.14184224;2023-06-10T08:02:38;97998.66;;;21.75;nan
216;BME280;64590;48.81286795;9.14184224;2023-06-10T08:05:07;97995.19;;;22.13;nan
216;BME280;64590;48.81286795;9.14184224;2023-06-10T08:07:35;97989.38;;;22.16;nan
216;BME280;64590;48.81286795;9.14184224;2023-06-10T08:10:05;97989.53;;;22.13;nan
216;BME280;64590;48.81286795;9.14184224;2023-06-10T08:12:36;97995.16;;;22.22;nan
216;BME280;64590;48.81286795;9.14184224;2023-06-10T08:15:06;97992.66;;;22.15;nan
216;BME280;64590;48.81286795;9.14184224;2023-06-10T08:17:35;97995.22;;;22.37;nan
216;BME280;64590;48.81286795;9.14184224;2023-06-10T08:20:04;97990.47;;;22.43;nan
216;BME280;64590;48.81286795;9.14184224;2023-06-10T08:22:33;97989.25;;;22.58;nan
216;BME280;64590;48.81286795;9.14184224;2023-06-10T08:25:01;97988.66;;;22.54;nan
216;BME280;64590;48.81286795;9.14184224;2023-06-10T08:27:30;97988.47;;;22.58;nan
216;BME280;64590;48.81286795;9.14184224;2023-06-10T08:30:01;97984.44;;;22.50;nan
216;BME280;64590;48.81286795;9.14184224;2023-06-10T08:32:30;97993.06;;;22.55;nan
216;BME280;64590;48.81286795;9.14184224;2023-06-10T08:34:58;97988.59;;;22.64;nan
216;BME280;64590;48.81286795;9.14184224;2023-06-10T08:37:27;97993.09;;;22.70;nan
216;BME280;64590;48.81286795;9.14184224;2023-06-10T08:39:55;97991.06;;;22.71;nan
216;BME280;64590;48.81286795;9.14184224;2023-06-10T08:42:28;97994.09;;;22.82;nan
216;BME280;64590;48.81286795;9.14184224;2023-06-10T08:45:05;97995.44;;;22.72;nan
216;BME280;64590;48.81286795;9.14184224;2023-06-10T08:47:37;97999.47;;;22.80;nan
216;BME280;64590;48.81286795;9.14184224;2023-06-10T08:50:07;97988.72;;;22.69;nan
216;BME280;64590;48.81286795;9.14184224;2023-06-10T08:52:37;97988.72;;;22.69;nan
216;BME280;64590;48.81286795;9.14184224;2023-06-10T08:55:11;97984.53;;;22.79;nan
216;BME280;64590;48.81286795;9.14184224;2023-06-10T08:57:41;97985.75;;;22.88;nan
216;BME280;64590;48.81286795;9.14184224;2023-06-10T09:00:14;97977.13;;;22.82;nan
216;BME280;64590;48.81286795;9.14184224;2023-06-10T09:02:44;97990.66;;;23.02;nan
216;BME280;64590;48.81286795;9.14184224;2023-06-10T09:05:13;97979.66;;;23.19;nan
216;BME280;64590;48.81286795;9.14184224;2023-06-10T09:07:42;97977.03;;;23.30;nan
216;BME280;64590;48.81286795;9.14184224;2023-06-10T09:10:12;97970.88;;;23.17;nan
216;BME280;64590;48.81286795;9.14184224;2023-06-10T09:12:40;97974.09;;;23.24;nan
216;BME280;64590;48.81286795;9.14184224;2023-06-10T09:15:09;97974.00;;;23.33;nan
216;BME280;64590;48.81286795;9.14184224;2023-06-10T09:17:42;97968.13;;;23.22;nan
216;BME280;64590;48.81286795;9.14184224;2023-06-10T09:20:11;97969.13;;;23.34;nan
216;BME280;64590;48.81286795;9.14184224;2023-06-10T09:22:41;97971.53;;;22.97;nan
216;BME280;64590;48.81286795;9.14184224;2023-06-10T09:25:11;97967.53;;;23.18;nan
216;BME280;64590;48.81286795;9.14184224;2023-06-10T09:27:50;97970.00;;;23.55;nan
216;BME280;64590;48.81286795;9.14184224;2023-06-10T09:30:27;97975.16;;;23.41;nan
216;BME280;64590;48.81286795;9.14184224;2023-06-10T09:32:59;97969.59;;;23.32;nan
216;BME280;64590;48.81286795;9.14184224;2023-06-10T09:35:29;97969.28;;;23.45;nan
216;BME280;64590;48.81286795;9.14184224;2023-06-10T09:37:59;97970.97;;;23.52;nan
216;BME280;64590;48.81286795;9.14184224;2023-06-10T09:40:27;97968.22;;;23.42;nan
216;BME280;64590;48.81286795;9.14184224;2023-06-10T09:42:57;97955.63;;;23.58;nan
216;BME280;64590;48.81286795;9.14184224;2023-06-10T09:45:29;97957.16;;;23.89;nan
216;BME280;64590;48.81286795;9.14184224;2023-06-10T09:48:00;97963.56;;;24.04;nan
216;BME280;64590;48.81286795;9.14184224;2023-06-10T09:50:32;97962.41;;;23.96;nan
216;BME280;64590;48.81286795;9.14184224;2023-06-10T09:53:01;97969.16;;;23.63;nan
216;BME280;64590;48.81286795;9.14184224;2023-06-10T09:55:32;97961.06;;;23.91;nan
216;BME280;64590;48.81286795;9.14184224;2023-06-10T09:58:01;97962.94;;;24.15;nan
216;BME280;64590;48.81286795;9.14184224;2023-06-10T10:00:31;97964.81;;;24.18;nan
216;BME280;64590;48.81286795;9.14184224;2023-06-10T10:03:03;97960.66;;;23.99;nan
216;BME280;64590;48.81286795;9.14184224;2023-06-10T10:05:32;97955.44;;;24.12;nan
216;BME280;64590;48.81286795;9.14184224;2023-06-10T10:08:00;97954.09;;;24.28;nan
216;BME280;64590;48.81286795;9.14184224;2023-06-10T10:10:29;97952.22;;;24.39;nan
216;BME280;64590;48.81286795;9.14184224;2023-06-10T10:12:57;97950.66;;;24.38;nan
216;BME280;64590;48.81286795;9.14184224;2023-06-10T10:15:29;97960.94;;;24.76;nan
216;BME280;64590;48.81286795;9.14184224;2023-06-10T10:18:06;97956.91;;;24.63;nan
216;BME280;64590;48.81286795;9.14184224;2023-06-10T10:20:40;97945.56;;;24.63;nan
216;BME280;64590;48.81286795;9.14184224;2023-06-10T10:23:14;97946.53;;;24.80;nan
216;BME280;64590;48.81286795;9.14184224;2023-06-10T10:25:49;97930.16;;;24.49;nan
216;BME280;64590;48.81286795;9.14184224;2023-06-10T10:28:21;97943.25;;;24.67;nan
216;BME280;64590;48.81286795;9.14184224;2023-06-10T10:30:53;97928.97;;;24.35;nan
216;BME280;64590;48.81286795;9.14184224;2023-06-10T10:33:29;97937.72;;;24.17;nan
216;BME280;64590;48.81286795;9.14184224;2023-06-10T10:36:00;97943.38;;;24.52;nan
216;BME280;64590;48.81286795;9.14184224;2023-06-10T10:38:29;97940.44;;;24.67;nan
216;BME280;64590;48.81286795;9.14184224;2023-06-10T10:40:58;97942.78;;;24.48;nan
216;BME280;64590;48.81286795;9.14184224;2023-06-10T10:43:28;97941.34;;;24.58;nan
216;BME280;64590;48.81286795;9.14184224;2023-06-10T10:46:00;97945.00;;;24.59;nan
216;BME280;64590;48.81286795;9.14184224;2023-06-10T10:48:37;97937.69;;;24.52;nan
216;BME280;64590;48.81286795;9.14184224;2023-06-10T10:51:06;97936.53;;;24.64;nan
216;BME280;64590;48.81286795;9.14184224;2023-06-10T10:53:36;97935.22;;;24.60;nan
216;BME280;64590;48.81286795;9.14184224;2023-06-10T10:56:06;97934.22;;;24.89;nan
216;BME280;64590;48.81286795;9.14184224;2023-06-10T10:58:35;97931.09;;;25.07;nan
216;BME280;64590;48.81286795;9.14184224;2023-06-10T11:01:11;97915.44;;;25.17;nan
216;BME280;64590;48.81286795;9.14184224;2023-06-10T11:03:46;97918.06;;;25.21;nan
216;BME280;64590;48.81286795;9.14184224;2023-06-10T11:06:16;97902.53;;;25.16;nan
216;BME280;64590;48.81286795;9.14184224;2023-06-10T11:08:49;97920.50;;;25.65;nan
216;BME280;64590;48.81286795;9.14184224;2023-06-10T11:11:19;97931.00;;;25.85;nan
216;BME280;64590;48.81286795;9.14184224;2023-06-10T11:13:58;97921.66;;;25.79;nan
216;BME280;64590;48.81286795;9.14184224;2023-06-10T11:16:30;97929.19;;;25.87;nan
216;BME280;64590;48.81286795;9.14184224;2023-06-10T11:19:08;97914.25;;;25.92;nan
216;BME280;64590;48.81286795;9.14184224;2023-06-10T11:21:57;97921.13;;;26.23;nan
216;BME280;64590;48.81286795;9.14184224;2023-06-10T11:24:28;97911.66;;;25.95;nan
216;BME280;64590;48.81286795;9.14184224;2023-06-10T11:27:16;97920.91;;;25.84;nan
216;BME280;64590;48.81286795;9.14184224;2023-06-10T11:29:58;97914.25;;;25.92;nan
216;BME280;64590;48.81286795;9.14184224;2023-06-10T11:32:30;97910.38;;;25.90;nan
216;BME280;64590;48.81286795;9.14184224;2023-06-10T11:35:02;97910.44;;;25.70;nan
216;BME280;64590;48.81286795;9.14184224;2023-06-10T11:37:31;97911.16;;;25.90;nan
216;BME280;64590;48.81286795;9.14184224;2023-06-10T11:40:00;97906.91;;;26.17;nan
216;BME280;64590;48.81286795;9.14184224;2023-06-10T11:42:29;97902.44;;;26.65;nan
216;BME280;64590;48.81286795;9.14184224;2023-06-10T11:44:57;97902.31;;;27.08;nan
216;BME280;64590;48.81286795;9.14184224;2023-06-10T11:47:28;97895.34;;;27.42;nan
216;BME280;64590;48.81286795;9.14184224;2023-06-10T11:49:56;97897.94;;;27.57;nan
216;BME280;64590;48.81286795;9.14184224;2023-06-10T11:52:29;97900.81;;;27.29;nan
216;BME280;64590;48.81286795;9.14184224;2023-06-10T11:54:59;97906.75;;;27.87;nan
216;BME280;64590;48.81286795;9.14184224;2023-06-10T11:57:28;97904.06;;;28.23;nan
216;BME280;64590;48.81286795;9.14184224;2023-06-10T11:59:56;97903.91;;;27.70;nan
216;BME280;64590;48.81286795;9.14184224;2023-06-10T12:02:25;97896.91;;;27.38;nan
216;BME280;64590;48.81286795;9.14184224;2023-06-10T12:04:53;97895.63;;;27.11;nan
216;BME280;64590;48.81286795;9.14184224;2023-06-10T12:07:22;97890.94;;;27.58;nan
216;BME280;64590;48.81286795;9.14184224;2023-06-10T12:10:00;97888.22;;;28.27;nan
216;BME280;64590;48.81286795;9.14184224;2023-06-10T12:12:29;97891.16;;;27.94;nan
216;BME280;64590;48.81286795;9.14184224;2023-06-10T12:14:59;97878.66;;;28.13;nan
216;BME280;64590;48.81286795;9.14184224;2023-06-10T12:17:37;97895.28;;;28.79;nan
216;BME280;64590;48.81286795;9.14184224;2023-06-10T12:20:07;97888.13;;;29.08;nan
216;BME280;64590;48.81286795;9.14184224;2023-06-10T12:22:38;97882.59;;;29.81;nan
216;BME280;64590;48.81286795;9.14184224;2023-06-10T12:25:10;97883.09;;;29.55;nan
216;BME280;64590;48.81286795;9.14184224;2023-06-10T12:27:40;97868.81;;;29.79;nan
216;BME280;64590;48.81286795;9.14184224;2023-06-10T12:30:09;97868.19;;;30.17;nan
216;BME280;64590;48.81286795;9.14184224;2023-06-10T12:32:42;97872.56;;;29.93;nan
216;BME280;64590;48.81286795;9.14184224;2023-06-10T12:35:12;97877.38;;;30.09;nan
216;BME280;64590;48.81286795;9.14184224;2023-06-10T12:37:41;97873.84;;;29.98;nan
216;BME280;64590;48.81286795;9.14184224;2023-06-10T12:40:12;97882.31;;;28.78;nan
216;BME280;64590;48.81286795;9.14184224;2023-06-10T12:42:40;97883.88;;;28.09;nan
216;BME280;64590;48.81286795;9.14184224;2023-06-10T12:45:10;97886.53;;;27.23;nan
216;BME280;64590;48.81286795;9.14184224;2023-06-10T12:47:38;97890.94;;;27.24;nan
216;BME280;64590;48.81286795;9.14184224;2023-06-10T12:50:08;97885.97;;;26.97;nan
216;BME280;64590;48.81286795;9.14184224;2023-06-10T12:52:37;97887.00;;;26.88;nan
216;BME280;64590;48.81286795;9.14184224;2023-06-10T12:55:07;97887.50;;;26.92;nan
216;BME280;64590;48.81286795;9.14184224;2023-06-10T12:57:47;97884.44;;;27.07;nan
216;BME280;64590;48.81286795;9.14184224;2023-06-10T13:00:17;97876.91;;;27.88;nan
216;BME280;64590;48.81286795;9.14184224;2023-06-10T13:02:46;97879.13;;;28.87;nan
216;BME280;64590;48.81286795;9.14184224;2023-06-10T13:05:14;97876.56;;;28.20;nan
216;BME280;64590;48.81286795;9.14184224;2023-06-10T13:07:43;97868.38;;;27.77;nan
216;BME280;64590;48.81286795;9.14184224;2023-06-10T13:10:12;97865.56;;;27.32;nan
216;BME280;64590;48.81286795;9.14184224;2023-06-10T13:12:44;97866.88;;;27.20;nan
216;BME280;64590;48.81286795;9.14184224;2023-06-10T13:15:13;97858.56;;;27.05;nan
216;BME280;64590;48.81286795;9.14184224;2023-06-10T13:17:43;97863.19;;;27.53;nan
216;BME280;64590;48.81286795;9.14184224;2023-06-10T13:20:14;97867.38;;;27.74;nan
216;BME280;64590;48.81286795;9.14184224;2023-06-10T13:22:43;97854.94;;;27.55;nan
216;BME280;64590;48.81286795;9.14184224;2023-06-10T13:25:13;97855.66;;;27.78;nan
216;BME280;64590;48.81286795;9.14184224;2023-06-10T13:27:44;97856.44;;;27.84;nan
216;BME280;64590;48.81286795;9.14184224;2023-06-10T13:30:12;97849.97;;;27.78;nan
216;BME280;64590;48.81286795;9.14184224;2023-06-10T13:32:40;97853.59;;;27.90;nan
216;BME280;64590;48.81286795;9.14184224;2023-06-10T13:35:09;97850.75;;;27.61;nan
216;BME280;64590;48.81286795;9.14184224;2023-06-10T13:37:37;97840.38;;;27.75;nan
216;BME280;64590;48.81286795;9.14184224;2023-06-10T13:40:07;97849.19;;;27.77;nan
216;BME280;64590;48.81286795;9.14184224;2023-06-10T13:42:35;97844.78;;;27.82;nan
216;BME280;64590;48.81286795;9.14184224;2023-06-10T13:45:07;97846.38;;;27.55;nan
216;BME280;64590;48.81286795;9.14184224;2023-06-10T13:47:35;97852.06;;;27.49;nan
216;BME280;64590;48.81286795;9.14184224;2023-06-10T13:50:05;97844.56;;;27.41;nan
216;BME280;64590;48.81286795;9.14184224;2023-06-10T13:52:34;97847.13;;;27.44;nan
216;BME280;64590;48.81286795;9.14184224;2023-06-10T13:55:03;97849.22;;;27.49;nan
216;BME280;64590;48.81286795;9.14184224;2023-06-10T13:57:31;97839.63;;;27.19;nan
216;BME280;64590;48.81286795;9.14184224;2023-06-10T14:00:00;97836.03;;;27.29;nan
216;BME280;64590;48.81286795;9.14184224;2023-06-10T14:02:33;97833.94;;;27.19;nan
216;BME280;64590;48.81286795;9.14184224;2023-06-10T14:05:01;97832.66;;;27.14;nan
216;BME280;64590;48.81286795;9.14184224;2023-06-10T14:07:30;97832.34;;;26.95;nan
216;BME280;64590;48.81286795;9.14184224;2023-06-10T14:09:59;97828.72;;;26.95;nan
216;BME280;64590;48.81286795;9.14184224;2023-06-10T14:12:27;97823.03;;;27.00;nan
216;BME280;64590;48.81286795;9.14184224;2023-06-10T14:14:56;97819.94;;;27.10;nan
216;BME280;64590;48.81286795;9.14184224;2023-06-10T14:17:24;97827.47;;;27.18;nan
216;BME280;64590;48.81286795;9.14184224;2023-06-10T14:19:55;97830.56;;;27.26;nan
216;BME280;64590;48.81286795;9.14184224;2023-06-10T14:22:24;97818.63;;;26.99;nan
216;BME280;64590;48.81286795;9.14184224;2023-06-10T14:24:52;97813.47;;;27.37;nan
216;BME280;64590;48.81286795;9.14184224;2023-06-10T14:27:20;97816.06;;;27.46;nan
216;BME280;64590;48.81286795;9.14184224;2023-06-10T14:29:49;97822.00;;;27.43;nan
216;BME280;64590;48.81286795;9.14184224;2023-06-10T14:32:17;97817.34;;;27.40;nan
216;BME280;64590;48.81286795;9.14184224;2023-06-10T14:34:46;97816.84;;;27.24;nan
216;BME280;64590;48.81286795;9.14184224;2023-06-10T14:37:17;97817.34;;;27.34;nan
216;BME280;64590;48.81286795;9.14184224;2023-06-10T14:39:45;97816.31;;;27.31;nan
216;BME280;64590;48.81286795;9.14184224;2023-06-10T14:44:45;97822.28;;;27.39;nan
216;BME280;64590;48.81286795;9.14184224;2023-06-10T14:47:14;97819.16;;;27.43;nan
216;BME280;64590;48.81286795;9.14184224;2023-06-10T14:49:43;97805.94;;;27.34;nan
216;BME280;64590;48.81286795;9.14184224;2023-06-10T14:52:11;97817.34;;;27.34;nan
216;BME280;64590;48.81286795;9.14184224;2023-06-10T14:54:42;97811.16;;;27.30;nan
216;BME280;64590;48.81286795;9.14184224;2023-06-10T14:57:11;97811.94;;;27.14;nan
216;BME280;64590;48.81286795;9.14184224;2023-06-10T14:59:39;97808.06;;;27.11;nan
216;BME280;64590;48.81286795;9.14184224;2023-06-10T15:02:07;97805.16;;;27.00;nan
216;BME280;64590;48.81286795;9.14184224;2023-06-10T15:04:36;97794.78;;;26.91;nan
216;BME280;64590;48.81286795;9.14184224;2023-06-10T15:07:05;97801.03;;;27.07;nan
216;BME280;64590;48.81286795;9.14184224;2023-06-10T15:09:33;97801.28;;;27.31;nan